Time;durP1;ratioP1;P1;durP2;ratioP2;P2;SDS_P1;SDS_P2;PMS_P1;PMS_P2;Temp;Humidity;BMP_temperature;BMP_pressure;BME280_temperature;BME280_humidity;BME280_pressure;Samples;Min_cycle;Max_cycle;Signal;HPM_P1;HPM_P2
2023/07/12 00:04:31;;;;;;;;;;;;;;;25.98;50.78;95683.06;10390109;28;2206;-68
2023/07/12 00:09:31;;;;;;;;;;;;;;;25.84;51.27;95686.59;10396749;28;1964;-67
2023/07/12 00:14:32;;;;;;;;;;;;;;;25.70;52.11;95701.88;10396759;28;2038;-67
2023/07/12 00:19:32;;;;;;;;;;;;;;;25.55;52.45;95689.03;10398454;28;2100;-66
2023/07/12 00:24:32;;;;;;;;;;;;;;;25.33;52.86;95690.91;10401414;28;2047;-66
2023/07/12 00:29:32;;;;;;;;;;;;;;;25.23;53.36;95721.13;10400773;28;2023;-66
2023/07/12 00:34:33;;;;;;;;;;;;;;;25.13;53.55;95745.28;10400854;28;2080;-67
2023/07/12 00:39:34;;;;;;;;;;;;;;;25.12;53.42;95725.16;10401034;28;2118;-67
2023/07/12 00:44:35;;;;;;;;;;;;;;;25.03;53.85;95705.72;10398076;28;2046;-66
2023/07/12 00:49:36;;;;;;;;;;;;;;;24.92;54.02;95688.50;10379673;28;2059;-66
2023/07/12 00:54:51;;;;;;;;;;;;;;;24.92;53.98;95651.38;10396907;28;2078;-67
2023/07/12 00:59:52;;;;;;;;;;;;;;;25.00;53.88;95670.00;10404512;28;2273;-67
2023/07/12 01:04:54;;;;;;;;;;;;;;;24.78;54.53;95666.56;10397341;28;2137;-68
2023/07/12 01:09:54;;;;;;;;;;;;;;;24.77;54.44;95692.28;10396440;28;2273;-67
2023/07/12 01:14:55;;;;;;;;;;;;;;;24.70;54.81;95704.38;10394438;28;2340;-67
2023/07/12 01:19:55;;;;;;;;;;;;;;;24.55;55.25;95725.91;10399377;28;1975;-67
2023/07/12 01:24:55;;;;;;;;;;;;;;;24.48;55.71;95712.31;10398680;28;2106;-67
2023/07/12 01:29:55;;;;;;;;;;;;;;;24.49;55.64;95695.31;10397040;28;2036;-66
2023/07/12 01:34:56;;;;;;;;;;;;;;;24.53;55.28;95669.78;10395387;28;1983;-66
2023/07/12 01:39:56;;;;;;;;;;;;;;;24.61;55.05;95622.16;10405491;28;4509;-66
2023/07/12 01:44:57;;;;;;;;;;;;;;;24.69;54.82;95600.22;10403974;28;2111;-66
2023/07/12 01:49:57;;;;;;;;;;;;;;;24.40;54.68;95569.94;10403638;28;2008;-66
2023/07/12 01:54:57;;;;;;;;;;;;;;;24.38;54.75;95595.97;10402094;28;2276;-66
2023/07/12 01:59:58;;;;;;;;;;;;;;;24.35;55.04;95581.44;10399448;28;2158;-67
2023/07/12 02:04:58;;;;;;;;;;;;;;;24.28;55.16;95570.47;10404990;28;2206;-66
2023/07/12 02:10:12;;;;;;;;;;;;;;;24.28;55.00;95578.44;10403316;28;1971;-66
2023/07/12 02:15:12;;;;;;;;;;;;;;;24.21;55.34;95583.38;10399545;28;2103;-66
2023/07/12 02:20:12;;;;;;;;;;;;;;;24.17;55.60;95593.75;10386484;28;2113;-66
2023/07/12 02:25:13;;;;;;;;;;;;;;;24.14;55.54;95551.22;10400924;28;1956;-66
2023/07/12 02:30:17;;;;;;;;;;;;;;;24.00;56.22;95511.53;10402091;28;2199;-67
2023/07/12 02:35:18;;;;;;;;;;;;;;;23.94;55.83;95488.91;10398742;28;2209;-66
2023/07/12 02:40:18;;;;;;;;;;;;;;;23.74;57.04;95444.38;10401288;28;4557;-67
2023/07/12 02:45:18;;;;;;;;;;;;;;;23.75;57.02;95475.06;10405038;28;2020;-67
2023/07/12 02:50:19;;;;;;;;;;;;;;;23.69;57.26;95460.38;10399220;28;2271;-67
2023/07/12 02:55:19;;;;;;;;;;;;;;;23.67;57.08;95451.16;10400956;28;2288;-67
2023/07/12 03:00:21;;;;;;;;;;;;;;;23.64;57.40;95467.66;10399950;28;2102;-67
2023/07/12 03:05:22;;;;;;;;;;;;;;;23.66;57.03;95450.38;10406600;28;2038;-68
2023/07/12 03:10:22;;;;;;;;;;;;;;;23.65;57.44;95443.53;10404047;28;1987;-68
2023/07/12 03:15:22;;;;;;;;;;;;;;;23.68;57.52;95429.69;10400011;28;1978;-67
2023/07/12 03:20:23;;;;;;;;;;;;;;;23.68;57.25;95418.34;10382196;28;2042;-67
2023/07/12 03:25:23;;;;;;;;;;;;;;;23.68;56.88;95403.22;10387723;28;1988;-67
2023/07/12 03:30:23;;;;;;;;;;;;;;;23.59;56.83;95386.53;10406921;28;2191;-67
2023/07/12 03:35:23;;;;;;;;;;;;;;;23.59;56.94;95391.81;10410576;28;1924;-66
2023/07/12 03:40:24;;;;;;;;;;;;;;;23.55;57.02;95380.28;10407081;28;4518;-67
2023/07/12 03:45:24;;;;;;;;;;;;;;;23.52;57.22;95359.72;10406761;28;2021;-67
2023/07/12 03:50:24;;;;;;;;;;;;;;;23.44;57.55;95348.00;10408451;28;2317;-67
2023/07/12 03:55:24;;;;;;;;;;;;;;;23.36;58.09;95355.88;10408105;28;1968;-67
2023/07/12 04:00:25;;;;;;;;;;;;;;;23.40;57.94;95344.38;10405620;28;2111;-67
2023/07/12 04:05:25;;;;;;;;;;;;;;;23.45;57.37;95351.44;10408120;28;2012;-67
2023/07/12 04:10:25;;;;;;;;;;;;;;;23.52;57.24;95365.00;10404810;28;1968;-67
2023/07/12 04:15:26;;;;;;;;;;;;;;;23.55;57.41;95372.34;10407451;28;1984;-66
2023/07/12 04:20:26;;;;;;;;;;;;;;;23.49;57.88;95364.81;10407186;28;2108;-67
2023/07/12 04:25:26;;;;;;;;;;;;;;;23.47;57.68;95362.50;10403648;28;1972;-67
2023/07/12 04:30:27;;;;;;;;;;;;;;;23.42;58.10;95360.75;10410037;28;1910;-68
2023/07/12 04:35:27;;;;;;;;;;;;;;;23.30;58.64;95362.31;10410828;28;1960;-68
2023/07/12 04:40:27;;;;;;;;;;;;;;;23.39;57.91;95360.53;10401564;28;4502;-68
2023/07/12 04:45:27;;;;;;;;;;;;;;;23.41;58.11;95358.41;10406154;28;2419;-69
2023/07/12 04:50:28;;;;;;;;;;;;;;;23.35;58.17;95354.28;10406702;28;2013;-69
2023/07/12 04:55:28;;;;;;;;;;;;;;;23.38;58.27;95351.06;10406803;28;1999;-69
2023/07/12 05:00:29;;;;;;;;;;;;;;;23.37;58.43;95362.69;10402169;28;1967;-70
2023/07/12 05:05:29;;;;;;;;;;;;;;;23.40;57.89;95360.25;10402431;28;2226;-69
2023/07/12 05:10:29;;;;;;;;;;;;;;;23.46;57.90;95355.63;10403571;28;2214;-70
2023/07/12 05:15:29;;;;;;;;;;;;;;;23.49;57.63;95347.09;10411986;28;2036;-69
2023/07/12 05:20:29;;;;;;;;;;;;;;;23.54;57.66;95351.47;10407535;28;1959;-66
2023/07/12 05:25:30;;;;;;;;;;;;;;;23.53;57.58;95341.97;10413468;28;1976;-66
2023/07/12 05:30:30;;;;;;;;;;;;;;;23.59;57.17;95344.19;10411588;28;2162;-67
2023/07/12 05:35:30;;;;;;;;;;;;;;;23.62;56.69;95354.16;10410874;28;2096;-65
2023/07/12 05:40:31;;;;;;;;;;;;;;;23.60;56.15;95361.63;10398151;28;4443;-66
2023/07/12 05:45:31;;;;;;;;;;;;;;;23.65;56.00;95366.81;10406738;28;2552;-67
2023/07/12 05:50:31;;;;;;;;;;;;;;;23.63;55.87;95373.47;10412223;28;2101;-66
2023/07/12 05:55:31;;;;;;;;;;;;;;;23.59;55.95;95396.31;10411066;28;2608;-64
2023/07/12 06:00:32;;;;;;;;;;;;;;;23.58;55.76;95403.47;10392955;28;1930;-66
2023/07/12 06:05:32;;;;;;;;;;;;;;;23.62;55.86;95424.84;10410574;28;2105;-66
2023/07/12 06:10:33;;;;;;;;;;;;;;;23.62;55.64;95444.13;10409372;28;2552;-66
2023/07/12 06:15:33;;;;;;;;;;;;;;;23.65;55.75;95448.84;10409857;28;1969;-66
2023/07/12 06:20:33;;;;;;;;;;;;;;;23.67;55.65;95459.09;10411863;28;1885;-64
2023/07/12 06:25:33;;;;;;;;;;;;;;;23.61;55.79;95484.13;10408455;28;1912;-64
2023/07/12 06:30:35;;;;;;;;;;;;;;;23.64;55.51;95497.53;10412674;28;1929;-64
2023/07/12 06:35:35;;;;;;;;;;;;;;;23.36;56.29;95509.28;10407748;28;2782;-64
2023/07/12 06:40:35;;;;;;;;;;;;;;;23.64;55.84;95508.13;10407843;28;4497;-66
2023/07/12 06:45:36;;;;;;;;;;;;;;;23.68;55.70;95448.22;10380715;28;2712;-66
2023/07/12 06:50:36;;;;;;;;;;;;;;;23.86;55.01;95510.81;10407442;28;1914;-63
2023/07/12 06:55:41;;;;;;;;;;;;;;;23.96;54.57;95501.84;10393217;28;1958;-64
2023/07/12 07:00:41;;;;;;;;;;;;;;;24.03;54.22;95471.22;10407678;28;1959;-64
2023/07/12 07:05:42;;;;;;;;;;;;;;;24.11;54.17;95504.94;10412553;28;1889;-64
2023/07/12 07:10:43;;;;;;;;;;;;;;;24.17;53.98;95550.63;10398017;28;1926;-64
2023/07/12 07:15:46;;;;;;;;;;;;;;;24.23;53.63;95581.22;10399888;28;2073;-65
2023/07/12 07:20:46;;;;;;;;;;;;;;;24.27;53.69;95531.84;10396292;28;1997;-65
2023/07/12 07:25:47;;;;;;;;;;;;;;;24.34;53.31;95534.06;10402812;28;2078;-65
2023/07/12 07:30:51;;;;;;;;;;;;;;;24.38;53.06;95535.78;10394474;28;2000;-65
2023/07/12 07:35:52;;;;;;;;;;;;;;;24.43;53.17;95537.53;10392323;28;2397;-65
2023/07/12 07:40:52;;;;;;;;;;;;;;;24.46;52.74;95529.00;10399337;28;1917;-65
2023/07/12 07:45:54;;;;;;;;;;;;;;;24.50;52.82;95532.59;10380119;28;1969;-65
2023/07/12 07:50:54;;;;;;;;;;;;;;;24.53;53.06;95540.72;10397983;28;1966;-65
2023/07/12 07:55:54;;;;;;;;;;;;;;;24.57;52.69;95525.78;10397470;28;2118;-65
2023/07/12 08:00:55;;;;;;;;;;;;;;;24.61;52.56;95525.94;10399131;28;2158;-65
2023/07/12 08:05:59;;;;;;;;;;;;;;;24.65;52.43;95518.94;10399004;28;2057;-65
2023/07/12 08:10:59;;;;;;;;;;;;;;;24.68;52.31;95510.41;10397000;28;1979;-65
2023/07/12 08:16:00;;;;;;;;;;;;;;;24.71;52.29;95515.88;10393713;28;2008;-65
2023/07/12 08:21:00;;;;;;;;;;;;;;;24.74;52.29;95511.88;10396910;28;1948;-65
2023/07/12 08:26:00;;;;;;;;;;;;;;;24.77;52.21;95500.66;10398582;28;1965;-65
2023/07/12 08:31:01;;;;;;;;;;;;;;;24.79;52.22;95501.91;10391472;28;2407;-65
2023/07/12 08:36:01;;;;;;;;;;;;;;;24.84;52.04;95495.69;10376211;28;1908;-64
2023/07/12 08:41:05;;;;;;;;;;;;;;;24.86;52.21;95498.81;10394882;28;4681;-64
2023/07/12 08:46:08;;;;;;;;;;;;;;;24.89;52.05;95504.28;10377006;28;2707;-64
2023/07/12 08:51:19;;;;;;;;;;;;;;;24.92;52.09;95513.50;10395294;28;1909;-64
2023/07/12 08:56:19;;;;;;;;;;;;;;;24.95;51.65;95508.38;10379457;28;1962;-65
2023/07/12 09:01:38;;;;;;;;;;;;;;;24.96;51.80;95509.91;10394347;28;1971;-66
2023/07/12 09:06:38;;;;;;;;;;;;;;;25.00;51.98;95505.56;10394900;28;1946;-65
2023/07/12 09:11:38;;;;;;;;;;;;;;;25.02;51.83;95492.78;10393709;28;1989;-65
2023/07/12 09:16:39;;;;;;;;;;;;;;;25.04;51.78;95497.78;10394992;28;1968;-64
2023/07/12 09:21:39;;;;;;;;;;;;;;;25.05;51.62;95491.41;10394991;28;2011;-64
2023/07/12 09:26:39;;;;;;;;;;;;;;;25.08;51.55;95484.69;10394285;28;2111;-64
2023/07/12 09:31:40;;;;;;;;;;;;;;;25.10;51.53;95485.94;10393238;28;2282;-64
2023/07/12 09:36:40;;;;;;;;;;;;;;;25.12;51.48;95478.47;10394621;28;2014;-65
2023/07/12 09:41:47;;;;;;;;;;;;;;;25.14;51.53;95475.50;10393675;28;2020;-65
2023/07/12 09:46:47;;;;;;;;;;;;;;;25.16;51.55;95479.41;10390786;28;2507;-65
2023/07/12 09:51:47;;;;;;;;;;;;;;;25.19;51.52;95468.19;10390292;28;1910;-65
2023/07/12 09:56:55;;;;;;;;;;;;;;;25.21;51.52;95467.84;10395010;28;1884;-65
2023/07/12 10:01:56;;;;;;;;;;;;;;;25.22;51.49;95483.50;10401988;28;1952;-64
2023/07/12 10:06:57;;;;;;;;;;;;;;;25.24;51.38;95483.97;10381912;28;1912;-65
2023/07/12 10:12:03;;;;;;;;;;;;;;;25.26;51.56;95483.63;10398665;28;1992;-65
2023/07/12 10:17:03;;;;;;;;;;;;;;;25.29;51.41;95488.31;10401815;28;2033;-65
2023/07/12 10:22:04;;;;;;;;;;;;;;;25.31;51.50;95484.25;10380864;28;2231;-65
2023/07/12 10:27:10;;;;;;;;;;;;;;;25.32;51.27;95485.06;10400487;28;1936;-64
2023/07/12 10:32:15;;;;;;;;;;;;;;;25.35;51.40;95485.22;10381690;28;1995;-65
2023/07/12 10:37:18;;;;;;;;;;;;;;;25.36;51.22;95484.13;10382531;28;1866;-65
2023/07/12 10:42:24;;;;;;;;;;;;;;;25.38;51.10;95484.59;10414450;28;4475;-64
2023/07/12 10:47:27;;;;;;;;;;;;;;;25.38;51.15;95484.59;10392013;28;2655;-65
2023/07/12 10:52:27;;;;;;;;;;;;;;;25.41;51.02;95499.91;10379508;28;1967;-66
2023/07/12 10:57:36;;;;;;;;;;;;;;;25.42;51.09;95501.50;10399655;28;1951;-65
2023/07/12 11:02:42;;;;;;;;;;;;;;;25.44;51.12;95506.47;10394363;28;2033;-65
2023/07/12 11:07:44;;;;;;;;;;;;;;;25.44;51.06;95499.31;10400137;28;2067;-65
2023/07/12 11:12:49;;;;;;;;;;;;;;;25.46;50.94;95494.47;10397834;28;2006;-65
2023/07/12 11:17:50;;;;;;;;;;;;;;;25.47;51.00;95485.41;10376607;28;2293;-65
2023/07/12 11:22:51;;;;;;;;;;;;;;;25.49;50.85;95485.88;10398985;28;2109;-65
2023/07/12 11:27:55;;;;;;;;;;;;;;;25.49;50.88;95483.22;10400941;28;2038;-65
2023/07/12 11:33:00;;;;;;;;;;;;;;;25.52;51.23;95479.97;10396158;28;2107;-65
2023/07/12 11:38:01;;;;;;;;;;;;;;;25.53;51.42;95476.19;10377224;28;2037;-65
2023/07/12 11:43:21;;;;;;;;;;;;;;;25.55;51.43;95473.25;10376382;28;4609;-65
2023/07/12 11:48:21;;;;;;;;;;;;;;;25.55;51.09;95475.91;10396076;28;2547;-64
2023/07/12 11:53:21;;;;;;;;;;;;;;;25.57;50.87;95482.47;10394603;28;2020;-64
2023/07/12 11:58:22;;;;;;;;;;;;;;;25.58;51.17;95483.22;10379976;28;1940;-64
2023/07/12 12:03:23;;;;;;;;;;;;;;;25.60;50.89;95481.03;10393953;28;2026;-65
2023/07/12 12:08:24;;;;;;;;;;;;;;;25.61;51.22;95462.19;10396154;28;2043;-65
2023/07/12 12:13:27;;;;;;;;;;;;;;;25.62;51.34;95455.75;10380645;28;2243;-65
2023/07/12 12:18:27;;;;;;;;;;;;;;;25.63;51.27;95438.75;10407968;28;1950;-65
2023/07/12 12:23:36;;;;;;;;;;;;;;;25.64;51.17;95440.31;10395022;28;1905;-65
2023/07/12 12:28:37;;;;;;;;;;;;;;;25.66;51.23;95421.41;10380795;28;1965;-65
2023/07/12 12:33:43;;;;;;;;;;;;;;;25.67;51.08;95422.97;10378761;28;1989;-65
2023/07/12 12:38:43;;;;;;;;;;;;;;;25.67;50.91;95418.44;10400082;28;1968;-65
2023/07/12 12:43:56;;;;;;;;;;;;;;;25.69;50.79;95421.56;10375162;28;4828;-64
2023/07/12 12:48:57;;;;;;;;;;;;;;;25.71;50.63;95413.28;10400080;28;2000;-65
2023/07/12 12:53:57;;;;;;;;;;;;;;;25.72;50.61;95410.31;10389714;28;1967;-65
2023/07/12 12:58:58;;;;;;;;;;;;;;;25.74;50.79;95428.56;10397033;28;2006;-66
2023/07/12 13:03:59;;;;;;;;;;;;;;;25.75;50.86;95436.25;10393049;28;1937;-65
2023/07/12 13:08:59;;;;;;;;;;;;;;;25.74;50.69;95428.56;10397303;28;1888;-65
2023/07/12 13:13:59;;;;;;;;;;;;;;;25.77;51.05;95420.00;10395402;28;2115;-65
2023/07/12 13:18:59;;;;;;;;;;;;;;;25.78;51.18;95408.28;10377374;28;1968;-66
2023/07/12 13:24:00;;;;;;;;;;;;;;;25.78;51.00;95416.25;10402276;28;2061;-65
2023/07/12 13:29:00;;;;;;;;;;;;;;;25.78;50.82;95427.63;10395581;28;1953;-65
2023/07/12 13:34:00;;;;;;;;;;;;;;;25.78;50.84;95440.91;10392712;28;1903;-65
2023/07/12 13:39:23;;;;;;;;;;;;;;;25.79;50.77;95454.97;10402504;28;1895;-65
2023/07/12 13:44:23;;;;;;;;;;;;;;;25.81;50.92;95471.38;10401382;28;4455;-65
2023/07/12 13:49:24;;;;;;;;;;;;;;;25.83;50.84;95477.16;10399736;28;1965;-65
2023/07/12 13:54:24;;;;;;;;;;;;;;;25.83;51.10;95499.19;10403212;28;1842;-66
2023/07/12 13:59:24;;;;;;;;;;;;;;;25.83;50.84;95485.91;10399551;28;1851;-65
2023/07/12 14:04:24;;;;;;;;;;;;;;;25.84;50.93;95492.75;10399874;28;1879;-65
2023/07/12 14:09:25;;;;;;;;;;;;;;;25.86;50.87;95504.97;10397538;28;2278;-66
2023/07/12 14:14:26;;;;;;;;;;;;;;;25.87;51.08;95533.06;10383066;28;1888;-66
2023/07/12 14:19:26;;;;;;;;;;;;;;;25.88;50.73;95561.97;10394791;28;1935;-66
2023/07/12 14:24:26;;;;;;;;;;;;;;;25.77;49.62;95550.88;10401459;28;1976;-66
2023/07/12 14:29:26;;;;;;;;;;;;;;;25.67;48.88;95559.16;10399234;28;2051;-66
2023/07/12 14:34:27;;;;;;;;;;;;;;;25.61;48.97;95573.66;10393789;28;1902;-65
2023/07/12 14:39:27;;;;;;;;;;;;;;;25.50;48.62;95577.69;10399636;28;2005;-65
2023/07/12 14:44:27;;;;;;;;;;;;;;;25.40;48.43;95583.25;10399473;28;4518;-65
2023/07/12 14:49:28;;;;;;;;;;;;;;;25.32;48.37;95560.13;10399514;28;1989;-65
2023/07/12 14:54:28;;;;;;;;;;;;;;;25.23;48.19;95519.53;10403799;28;1882;-66
2023/07/12 14:59:29;;;;;;;;;;;;;;;25.17;48.14;95520.75;10394974;28;1956;-65
2023/07/12 15:04:29;;;;;;;;;;;;;;;25.11;47.39;95547.72;10396602;28;2385;-65
2023/07/12 15:09:29;;;;;;;;;;;;;;;24.98;46.82;95554.69;10400916;28;1981;-65
2023/07/12 15:14:29;;;;;;;;;;;;;;;24.92;46.89;95545.31;10399207;28;1954;-65
2023/07/12 15:19:30;;;;;;;;;;;;;;;24.94;47.04;95537.81;10397711;28;1875;-65
2023/07/12 15:24:30;;;;;;;;;;;;;;;25.01;47.08;95527.56;10400909;28;1962;-65
2023/07/12 15:29:31;;;;;;;;;;;;;;;25.05;47.21;95541.78;10401008;28;1910;-65
2023/07/12 15:34:32;;;;;;;;;;;;;;;25.09;47.13;95545.38;10400845;28;2055;-65
2023/07/12 15:39:32;;;;;;;;;;;;;;;25.03;47.02;95555.34;10397643;28;1838;-65
2023/07/12 15:44:32;;;;;;;;;;;;;;;25.00;47.04;95563.13;10400803;28;4517;-65
2023/07/12 15:49:33;;;;;;;;;;;;;;;24.97;46.96;95579.66;10400419;28;1977;-65
2023/07/12 15:54:33;;;;;;;;;;;;;;;25.03;47.41;95589.03;10400039;28;1860;-65
2023/07/12 15:59:34;;;;;;;;;;;;;;;25.10;47.58;95588.59;10411022;28;1970;-66
2023/07/12 16:04:34;;;;;;;;;;;;;;;25.13;47.82;95559.59;10404865;28;1836;-65
2023/07/12 16:09:35;;;;;;;;;;;;;;;25.18;48.28;95534.81;10406468;28;1981;-65
2023/07/12 16:14:36;;;;;;;;;;;;;;;25.23;48.52;95514.22;10405685;28;1893;-66
2023/07/12 16:19:36;;;;;;;;;;;;;;;25.24;48.59;95520.31;10407757;28;1886;-66
2023/07/12 16:24:36;;;;;;;;;;;;;;;25.27;48.65;95506.41;10407607;28;1921;-66
2023/07/12 16:29:37;;;;;;;;;;;;;;;25.26;48.92;95507.50;10389436;28;2034;-65
2023/07/12 16:34:37;;;;;;;;;;;;;;;25.25;49.22;95496.13;10409391;28;2130;-65
2023/07/12 16:39:38;;;;;;;;;;;;;;;25.29;49.31;95480.34;10405461;28;1878;-66
2023/07/12 16:44:38;;;;;;;;;;;;;;;25.22;49.34;95480.03;10398000;28;4498;-66
2023/07/12 16:49:38;;;;;;;;;;;;;;;25.18;49.43;95471.94;10405908;28;1902;-66
2023/07/12 16:54:38;;;;;;;;;;;;;;;25.12;50.03;95472.38;10406513;28;1894;-65
2023/07/12 16:59:39;;;;;;;;;;;;;;;25.17;49.73;95462.41;10404088;28;2488;-66
2023/07/12 17:04:40;;;;;;;;;;;;;;;25.19;50.11;95468.19;10397599;28;1792;-70
2023/07/12 17:09:40;;;;;;;;;;;;;;;25.23;49.92;95470.97;10399788;28;1906;-67
2023/07/12 17:14:41;;;;;;;;;;;;;;;25.24;49.90;95465.38;10402936;28;2005;-66
2023/07/12 17:19:41;;;;;;;;;;;;;;;25.13;49.90;95450.84;10401750;28;1956;-68
2023/07/12 17:24:42;;;;;;;;;;;;;;;25.07;49.61;95449.44;10398453;28;1839;-66
2023/07/12 17:29:42;;;;;;;;;;;;;;;25.07;49.57;95441.47;10398415;28;1973;-66
2023/07/12 17:34:43;;;;;;;;;;;;;;;25.07;49.51;95433.53;10412346;28;1862;-65
2023/07/12 17:39:44;;;;;;;;;;;;;;;25.03;49.64;95417.44;10401712;28;1863;-66
2023/07/12 17:44:47;;;;;;;;;;;;;;;25.04;49.56;95407.59;10411821;28;4455;-65
2023/07/12 17:49:47;;;;;;;;;;;;;;;25.06;49.58;95408.06;10403915;28;1910;-65
2023/07/12 17:54:48;;;;;;;;;;;;;;;25.00;49.86;95428.66;10386779;28;2274;-65
2023/07/12 17:59:48;;;;;;;;;;;;;;;25.02;49.57;95428.34;10401579;28;1929;-66
2023/07/12 18:04:49;;;;;;;;;;;;;;;25.02;49.65;95412.44;10412738;28;2131;-71
2023/07/12 18:09:49;;;;;;;;;;;;;;;24.98;49.73;95403.53;10403483;28;1949;-68
2023/07/12 18:14:50;;;;;;;;;;;;;;;24.96;49.87;95422.41;10406103;28;1799;-69
2023/07/12 18:19:52;;;;;;;;;;;;;;;24.95;49.64;95428.81;10404708;28;1883;-64
2023/07/12 18:24:52;;;;;;;;;;;;;;;24.90;49.51;95441.44;10412547;28;1820;-66
2023/07/12 18:29:53;;;;;;;;;;;;;;;24.89;49.21;95445.19;10412770;28;2064;-65
2023/07/12 18:34:53;;;;;;;;;;;;;;;24.87;49.37;95457.97;10394525;28;2068;-64
2023/07/12 18:39:54;;;;;;;;;;;;;;;24.83;49.38;95454.38;10409323;28;2086;-64
2023/07/12 18:44:55;;;;;;;;;;;;;;;24.81;49.38;95462.59;10413540;28;1959;-66
2023/07/12 18:49:56;;;;;;;;;;;;;;;24.79;49.16;95456.06;10387381;28;2325;-65
2023/07/12 18:54:56;;;;;;;;;;;;;;;24.74;49.12;95454.34;10407679;28;2050;-64
2023/07/12 18:59:57;;;;;;;;;;;;;;;24.71;49.09;95443.53;10409348;28;2111;-64
2023/07/12 19:04:57;;;;;;;;;;;;;;;24.71;49.41;95440.88;10415103;28;1901;-64
2023/07/12 19:09:57;;;;;;;;;;;;;;;24.71;49.40;95432.94;10410521;28;2099;-64
2023/07/12 19:15:01;;;;;;;;;;;;;;;24.71;49.17;95403.78;10413329;28;2141;-65
2023/07/12 19:20:01;;;;;;;;;;;;;;;24.69;49.42;95403.31;10412605;28;2059;-64
2023/07/12 19:25:02;;;;;;;;;;;;;;;24.64;49.39;95437.88;10410517;28;2105;-64
2023/07/12 19:30:03;;;;;;;;;;;;;;;24.64;49.28;95453.78;10406402;28;1922;-66
2023/07/12 19:35:03;;;;;;;;;;;;;;;24.62;49.49;95477.16;10411059;28;1902;-65
2023/07/12 19:40:05;;;;;;;;;;;;;;;24.63;50.11;95511.31;10408336;28;4530;-65
2023/07/12 19:45:06;;;;;;;;;;;;;;;24.75;49.71;95545.25;10403407;28;2285;-63
2023/07/12 19:50:06;;;;;;;;;;;;;;;24.82;49.47;95578.19;10402986;28;1957;-62
2023/07/12 19:55:08;;;;;;;;;;;;;;;24.88;49.65;95626.53;10407639;28;1898;-63
2023/07/12 20:00:11;;;;;;;;;;;;;;;24.93;49.47;95637.84;10390409;28;2057;-61
2023/07/12 20:05:11;;;;;;;;;;;;;;;24.99;49.75;95649.09;10406889;28;1979;-62
2023/07/12 20:10:11;;;;;;;;;;;;;;;25.04;50.02;95647.06;10391043;28;2124;-65
2023/07/12 20:15:12;;;;;;;;;;;;;;;25.07;50.27;95658.16;10408225;28;1898;-62
2023/07/12 20:20:13;;;;;;;;;;;;;;;25.08;50.97;95663.16;10402978;28;1942;-62
2023/07/12 20:25:13;;;;;;;;;;;;;;;25.05;51.98;95661.13;10407913;28;1799;-64
2023/07/12 20:30:13;;;;;;;;;;;;;;;25.10;51.85;95615.88;10399852;28;1883;-64
2023/07/12 20:35:14;;;;;;;;;;;;;;;25.16;51.62;95555.56;10403823;28;1897;-62
2023/07/12 20:40:15;;;;;;;;;;;;;;;25.16;51.82;95572.25;10403105;28;4602;-62
2023/07/12 20:45:15;;;;;;;;;;;;;;;25.18;52.10;95579.91;10398620;28;2337;-64
2023/07/12 20:50:15;;;;;;;;;;;;;;;25.19;52.35;95598.16;10400972;28;1979;-62
2023/07/12 20:55:19;;;;;;;;;;;;;;;25.17;52.88;95599.53;10411340;28;1745;-65
2023/07/12 21:00:19;;;;;;;;;;;;;;;25.22;52.82;95629.38;10413444;28;1914;-63
2023/07/12 21:05:19;;;;;;;;;;;;;;;25.25;53.19;95612.06;10405900;28;1887;-66
2023/07/12 21:10:20;;;;;;;;;;;;;;;25.25;53.96;95620.81;10409535;28;1914;-66
2023/07/12 21:15:20;;;;;;;;;;;;;;;25.25;54.62;95612.06;10413471;28;1796;-66
2023/07/12 21:20:20;;;;;;;;;;;;;;;25.23;54.55;95636.25;10404925;28;1948;-66
2023/07/12 21:25:20;;;;;;;;;;;;;;;25.27;54.10;95639.06;10408935;28;1930;-66
2023/07/12 21:30:21;;;;;;;;;;;;;;;25.30;53.84;95639.25;10405734;28;1906;-65
2023/07/12 21:35:21;;;;;;;;;;;;;;;25.33;53.83;95633.31;10405248;28;1862;-64
2023/07/12 21:40:22;;;;;;;;;;;;;;;25.35;53.51;95625.06;10400602;28;4639;-67
2023/07/12 21:45:22;;;;;;;;;;;;;;;25.15;54.59;95621.06;10403582;28;2668;-66
2023/07/12 21:50:22;;;;;;;;;;;;;;;24.95;55.32;95640.16;10405840;28;2010;-66
2023/07/12 21:55:23;;;;;;;;;;;;;;;24.69;56.63;95663.81;10407111;28;1915;-65
2023/07/12 22:00:23;;;;;;;;;;;;;;;24.48;57.15;95678.66;10411270;28;1679;-65
2023/07/12 22:05:23;;;;;;;;;;;;;;;24.43;57.29;95664.72;10409110;28;1939;-64
2023/07/12 22:10:25;;;;;;;;;;;;;;;24.60;56.52;95627.75;10409628;28;1953;-64
2023/07/12 22:15:25;;;;;;;;;;;;;;;24.68;56.17;95603.97;10394334;28;1896;-63
2023/07/12 22:20:25;;;;;;;;;;;;;;;24.75;56.02;95622.13;10408426;28;1940;-64
2023/07/12 22:25:26;;;;;;;;;;;;;;;24.79;55.91;95625.72;10421732;28;1835;-64
2023/07/12 22:30:27;;;;;;;;;;;;;;;24.84;55.53;95644.94;10410980;28;1975;-64
2023/07/12 22:35:28;;;;;;;;;;;;;;;24.87;55.57;95654.16;10410490;28;2369;-64
2023/07/12 22:40:29;;;;;;;;;;;;;;;24.88;55.70;95655.72;10407915;28;4517;-64
2023/07/12 22:45:29;;;;;;;;;;;;;;;24.88;55.51;95645.09;10407938;28;2531;-64
2023/07/12 22:50:30;;;;;;;;;;;;;;;24.92;55.52;95661.97;10407416;28;1902;-64
2023/07/12 22:55:30;;;;;;;;;;;;;;;24.93;55.32;95677.59;10408195;28;1792;-64
2023/07/12 23:00:30;;;;;;;;;;;;;;;24.91;55.30;95692.25;10407383;28;1972;-64
2023/07/12 23:05:31;;;;;;;;;;;;;;;24.86;55.39;95702.97;10407064;28;1913;-64
2023/07/12 23:10:37;;;;;;;;;;;;;;;24.86;55.25;95706.41;10403072;28;1981;-64
2023/07/12 23:15:37;;;;;;;;;;;;;;;24.81;55.21;95689.84;10412714;28;1855;-64
2023/07/12 23:20:38;;;;;;;;;;;;;;;24.76;55.09;95677.47;10410513;28;1839;-64
2023/07/12 23:25:38;;;;;;;;;;;;;;;24.74;55.08;95658.44;10408866;28;2014;-64
2023/07/12 23:30:38;;;;;;;;;;;;;;;24.74;55.06;95649.69;10405298;28;2384;-64
2023/07/12 23:35:38;;;;;;;;;;;;;;;24.64;55.02;95628.72;10409296;28;1780;-64
2023/07/12 23:40:39;;;;;;;;;;;;;;;24.61;55.01;95618.72;10392513;28;1878;-64
2023/07/12 23:45:39;;;;;;;;;;;;;;;24.61;54.92;95635.41;10414678;28;2590;-64
2023/07/12 23:50:39;;;;;;;;;;;;;;;24.57;54.87;95660.94;10412101;28;2050;-64
2023/07/12 23:55:41;;;;;;;;;;;;;;;24.58;55.02;95651.91;10411514;28;1792;-64
